Shanesville, Ohio
Current Conditions -  °F | °C
As of 9:44 AM on Tuesday 27 Jan 2015 (Local Time) from KPHD Reporting Station
Light Snow Light Snow  
Wind Chill: 11°   Ceiling: 3200
Heat Index: 20°   Visibility: 3mi
Dew Point: 13°   Wind: 7mph
Humidity: 74%   Direction: 320°NW
Pressure: 29.99"   Gusts: NA
Location:  40.5178°N, 81.673°W
Report Text: KPHD 271444Z AUTO 32006KT 3SM -SN OVC032 M07/M11 A2999 RMK AO2 P0000 T10671106
Loading
Personal Weather Stations






























Interactive Weather Map New forecast layout! Learn more

10-Day Weather Forecast

Advertisements
Track Severe Weather on mobile